sensor_id;sensor_type;location;lat;lon;timestamp;P1;durP1;ratioP1;P2;durP2;ratioP2
65853;SDS011;52627;48.838;2.402;2024-01-27T00:00:13;16.60;;;6.10;;
65853;SDS011;52627;48.838;2.402;2024-01-27T00:02:41;16.40;;;7.10;;
65853;SDS011;52627;48.838;2.402;2024-01-27T00:05:09;14.90;;;6.70;;
65853;SDS011;52627;48.838;2.402;2024-01-27T00:07:37;17.70;;;7.40;;
65853;SDS011;52627;48.838;2.402;2024-01-27T00:10:07;18.30;;;8.30;;
65853;SDS011;52627;48.838;2.402;2024-01-27T00:12:35;19.10;;;7.90;;
65853;SDS011;52627;48.838;2.402;2024-01-27T00:15:04;20.20;;;8.50;;
65853;SDS011;52627;48.838;2.402;2024-01-27T00:17:34;19.20;;;8.10;;
65853;SDS011;52627;48.838;2.402;2024-01-27T00:20:03;16.70;;;7.80;;
65853;SDS011;52627;48.838;2.402;2024-01-27T00:22:31;16.10;;;7.70;;
65853;SDS011;52627;48.838;2.402;2024-01-27T00:24:58;21.00;;;8.60;;
65853;SDS011;52627;48.838;2.402;2024-01-27T00:27:26;21.70;;;8.30;;
65853;SDS011;52627;48.838;2.402;2024-01-27T00:29:53;19.60;;;9.80;;
65853;SDS011;52627;48.838;2.402;2024-01-27T00:32:21;17.40;;;8.60;;
65853;SDS011;52627;48.838;2.402;2024-01-27T00:34:49;20.50;;;9.30;;
65853;SDS011;52627;48.838;2.402;2024-01-27T00:37:16;18.50;;;8.90;;
65853;SDS011;52627;48.838;2.402;2024-01-27T00:39:45;18.30;;;9.80;;
65853;SDS011;52627;48.838;2.402;2024-01-27T00:42:13;21.80;;;9.30;;
65853;SDS011;52627;48.838;2.402;2024-01-27T00:44:41;18.60;;;8.90;;
65853;SDS011;52627;48.838;2.402;2024-01-27T00:47:08;19.60;;;8.80;;
65853;SDS011;52627;48.838;2.402;2024-01-27T00:49:36;19.00;;;9.30;;
65853;SDS011;52627;48.838;2.402;2024-01-27T00:52:04;20.00;;;8.50;;
65853;SDS011;52627;48.838;2.402;2024-01-27T00:54:32;19.60;;;10.00;;
65853;SDS011;52627;48.838;2.402;2024-01-27T00:56:59;20.20;;;8.90;;
65853;SDS011;52627;48.838;2.402;2024-01-27T00:59:27;24.80;;;10.20;;
65853;SDS011;52627;48.838;2.402;2024-01-27T01:01:54;19.10;;;9.50;;
65853;SDS011;52627;48.838;2.402;2024-01-27T01:04:23;21.70;;;10.20;;
65853;SDS011;52627;48.838;2.402;2024-01-27T01:06:50;21.60;;;10.30;;
65853;SDS011;52627;48.838;2.402;2024-01-27T01:09:18;19.60;;;10.00;;
65853;SDS011;52627;48.838;2.402;2024-01-27T01:11:45;23.70;;;10.50;;
65853;SDS011;52627;48.838;2.402;2024-01-27T01:14:13;20.40;;;11.10;;
65853;SDS011;52627;48.838;2.402;2024-01-27T01:16:41;22.30;;;10.80;;
65853;SDS011;52627;48.838;2.402;2024-01-27T01:19:08;23.70;;;11.00;;
65853;SDS011;52627;48.838;2.402;2024-01-27T01:21:36;21.80;;;10.10;;
65853;SDS011;52627;48.838;2.402;2024-01-27T01:24:05;21.00;;;11.30;;
65853;SDS011;52627;48.838;2.402;2024-01-27T01:26:33;23.90;;;12.00;;
65853;SDS011;52627;48.838;2.402;2024-01-27T01:29:01;26.70;;;12.40;;
65853;SDS011;52627;48.838;2.402;2024-01-27T01:31:28;29.20;;;13.70;;
65853;SDS011;52627;48.838;2.402;2024-01-27T01:33:56;27.70;;;13.10;;
65853;SDS011;52627;48.838;2.402;2024-01-27T01:36:23;23.90;;;12.70;;
65853;SDS011;52627;48.838;2.402;2024-01-27T01:38:51;24.30;;;13.30;;
65853;SDS011;52627;48.838;2.402;2024-01-27T01:41:19;26.30;;;14.30;;
65853;SDS011;52627;48.838;2.402;2024-01-27T01:43:46;26.30;;;14.40;;
65853;SDS011;52627;48.838;2.402;2024-01-27T01:46:13;30.50;;;14.20;;
65853;SDS011;52627;48.838;2.402;2024-01-27T01:48:41;32.00;;;14.40;;
65853;SDS011;52627;48.838;2.402;2024-01-27T01:51:10;29.40;;;13.40;;
65853;SDS011;52627;48.838;2.402;2024-01-27T01:53:37;21.80;;;14.30;;
65853;SDS011;52627;48.838;2.402;2024-01-27T01:56:06;27.80;;;14.20;;
65853;SDS011;52627;48.838;2.402;2024-01-27T01:58:36;28.40;;;14.30;;
65853;SDS011;52627;48.838;2.402;2024-01-27T02:01:03;29.30;;;13.70;;
65853;SDS011;52627;48.838;2.402;2024-01-27T02:03:31;26.90;;;14.10;;
65853;SDS011;52627;48.838;2.402;2024-01-27T02:05:59;26.50;;;13.30;;
65853;SDS011;52627;48.838;2.402;2024-01-27T02:08:26;27.70;;;14.30;;
65853;SDS011;52627;48.838;2.402;2024-01-27T02:10:54;24.40;;;13.70;;
65853;SDS011;52627;48.838;2.402;2024-01-27T02:13:23;26.70;;;13.20;;
65853;SDS011;52627;48.838;2.402;2024-01-27T02:15:50;24.90;;;13.20;;
65853;SDS011;52627;48.838;2.402;2024-01-27T02:18:18;28.50;;;13.00;;
65853;SDS011;52627;48.838;2.402;2024-01-27T02:20:47;23.60;;;13.10;;
65853;SDS011;52627;48.838;2.402;2024-01-27T02:23:14;24.70;;;14.80;;
65853;SDS011;52627;48.838;2.402;2024-01-27T02:25:42;28.20;;;16.40;;
65853;SDS011;52627;48.838;2.402;2024-01-27T02:28:10;30.00;;;15.70;;
65853;SDS011;52627;48.838;2.402;2024-01-27T02:30:37;30.10;;;15.20;;
65853;SDS011;52627;48.838;2.402;2024-01-27T02:33:05;26.50;;;15.90;;
65853;SDS011;52627;48.838;2.402;2024-01-27T02:35:33;32.40;;;17.80;;
65853;SDS011;52627;48.838;2.402;2024-01-27T02:38:01;31.70;;;17.20;;
65853;SDS011;52627;48.838;2.402;2024-01-27T02:40:29;28.20;;;18.20;;
65853;SDS011;52627;48.838;2.402;2024-01-27T02:42:56;34.90;;;18.40;;
65853;SDS011;52627;48.838;2.402;2024-01-27T02:45:24;35.30;;;18.70;;
65853;SDS011;52627;48.838;2.402;2024-01-27T02:47:51;34.40;;;18.10;;
65853;SDS011;52627;48.838;2.402;2024-01-27T02:50:19;36.90;;;19.70;;
65853;SDS011;52627;48.838;2.402;2024-01-27T02:52:47;31.00;;;17.30;;
65853;SDS011;52627;48.838;2.402;2024-01-27T02:55:14;32.70;;;18.10;;
65853;SDS011;52627;48.838;2.402;2024-01-27T02:57:42;31.80;;;18.40;;
65853;SDS011;52627;48.838;2.402;2024-01-27T03:00:10;30.80;;;18.60;;
65853;SDS011;52627;48.838;2.402;2024-01-27T03:02:38;31.60;;;18.30;;
65853;SDS011;52627;48.838;2.402;2024-01-27T03:05:05;33.60;;;18.80;;
65853;SDS011;52627;48.838;2.402;2024-01-27T03:07:34;30.10;;;18.90;;
65853;SDS011;52627;48.838;2.402;2024-01-27T03:10:02;33.20;;;18.90;;
65853;SDS011;52627;48.838;2.402;2024-01-27T03:12:30;31.90;;;19.70;;
65853;SDS011;52627;48.838;2.402;2024-01-27T03:14:58;34.70;;;20.10;;
65853;SDS011;52627;48.838;2.402;2024-01-27T03:17:25;42.00;;;19.00;;
65853;SDS011;52627;48.838;2.402;2024-01-27T03:19:53;33.90;;;20.20;;
65853;SDS011;52627;48.838;2.402;2024-01-27T03:22:20;31.50;;;19.40;;
65853;SDS011;52627;48.838;2.402;2024-01-27T03:24:48;32.90;;;18.90;;
65853;SDS011;52627;48.838;2.402;2024-01-27T03:27:16;32.10;;;18.60;;
65853;SDS011;52627;48.838;2.402;2024-01-27T03:29:43;32.60;;;19.30;;
65853;SDS011;52627;48.838;2.402;2024-01-27T03:32:11;30.50;;;19.00;;
65853;SDS011;52627;48.838;2.402;2024-01-27T03:34:44;35.50;;;18.80;;
65853;SDS011;52627;48.838;2.402;2024-01-27T03:37:13;32.20;;;19.30;;
65853;SDS011;52627;48.838;2.402;2024-01-27T03:39:43;33.50;;;20.50;;
65853;SDS011;52627;48.838;2.402;2024-01-27T03:42:11;31.80;;;19.80;;
65853;SDS011;52627;48.838;2.402;2024-01-27T03:44:38;35.30;;;19.20;;
65853;SDS011;52627;48.838;2.402;2024-01-27T03:47:06;31.60;;;18.80;;
65853;SDS011;52627;48.838;2.402;2024-01-27T03:49:33;32.30;;;18.60;;
65853;SDS011;52627;48.838;2.402;2024-01-27T03:52:02;32.50;;;18.70;;
65853;SDS011;52627;48.838;2.402;2024-01-27T03:54:30;29.00;;;17.60;;
65853;SDS011;52627;48.838;2.402;2024-01-27T03:56:57;29.50;;;19.10;;
65853;SDS011;52627;48.838;2.402;2024-01-27T03:59:25;33.00;;;20.00;;
65853;SDS011;52627;48.838;2.402;2024-01-27T04:01:53;34.70;;;19.70;;
65853;SDS011;52627;48.838;2.402;2024-01-27T04:04:20;33.60;;;19.00;;
65853;SDS011;52627;48.838;2.402;2024-01-27T04:06:51;29.70;;;18.50;;
65853;SDS011;52627;48.838;2.402;2024-01-27T04:09:18;32.90;;;20.20;;
65853;SDS011;52627;48.838;2.402;2024-01-27T04:11:46;34.10;;;20.10;;
65853;SDS011;52627;48.838;2.402;2024-01-27T04:14:14;37.40;;;20.10;;
65853;SDS011;52627;48.838;2.402;2024-01-27T04:16:41;29.70;;;18.50;;
65853;SDS011;52627;48.838;2.402;2024-01-27T04:19:09;30.40;;;19.80;;
65853;SDS011;52627;48.838;2.402;2024-01-27T04:21:37;33.30;;;19.00;;
65853;SDS011;52627;48.838;2.402;2024-01-27T04:24:05;31.30;;;19.80;;
65853;SDS011;52627;48.838;2.402;2024-01-27T04:26:32;31.70;;;19.80;;
65853;SDS011;52627;48.838;2.402;2024-01-27T04:29:00;31.50;;;19.60;;
65853;SDS011;52627;48.838;2.402;2024-01-27T04:31:27;32.40;;;18.90;;
65853;SDS011;52627;48.838;2.402;2024-01-27T04:33:55;36.80;;;19.50;;
65853;SDS011;52627;48.838;2.402;2024-01-27T04:36:28;29.90;;;18.40;;
65853;SDS011;52627;48.838;2.402;2024-01-27T04:38:57;32.30;;;18.30;;
65853;SDS011;52627;48.838;2.402;2024-01-27T04:41:24;30.90;;;18.30;;
65853;SDS011;52627;48.838;2.402;2024-01-27T04:43:52;28.80;;;19.50;;
65853;SDS011;52627;48.838;2.402;2024-01-27T04:46:20;33.10;;;19.40;;
65853;SDS011;52627;48.838;2.402;2024-01-27T04:48:48;30.40;;;19.20;;
65853;SDS011;52627;48.838;2.402;2024-01-27T04:51:16;29.40;;;15.30;;
65853;SDS011;52627;48.838;2.402;2024-01-27T04:53:43;26.60;;;18.10;;
65853;SDS011;52627;48.838;2.402;2024-01-27T04:56:11;32.40;;;18.50;;
65853;SDS011;52627;48.838;2.402;2024-01-27T04:58:40;34.00;;;18.90;;
65853;SDS011;52627;48.838;2.402;2024-01-27T05:01:07;26.90;;;18.00;;
65853;SDS011;52627;48.838;2.402;2024-01-27T05:03:35;27.20;;;18.80;;
65853;SDS011;52627;48.838;2.402;2024-01-27T05:06:07;24.50;;;17.10;;
65853;SDS011;52627;48.838;2.402;2024-01-27T05:08:37;31.80;;;18.70;;
65853;SDS011;52627;48.838;2.402;2024-01-27T05:11:04;31.40;;;17.00;;
65853;SDS011;52627;48.838;2.402;2024-01-27T05:13:32;30.30;;;17.60;;
65853;SDS011;52627;48.838;2.402;2024-01-27T05:15:59;27.20;;;18.10;;
65853;SDS011;52627;48.838;2.402;2024-01-27T05:18:27;30.30;;;17.90;;
65853;SDS011;52627;48.838;2.402;2024-01-27T05:20:55;31.40;;;17.80;;
65853;SDS011;52627;48.838;2.402;2024-01-27T05:23:22;27.30;;;17.20;;
65853;SDS011;52627;48.838;2.402;2024-01-27T05:25:50;33.50;;;18.10;;
65853;SDS011;52627;48.838;2.402;2024-01-27T05:28:18;28.80;;;17.50;;
65853;SDS011;52627;48.838;2.402;2024-01-27T05:30:45;28.10;;;17.40;;
65853;SDS011;52627;48.838;2.402;2024-01-27T05:33:13;28.40;;;18.20;;
65853;SDS011;52627;48.838;2.402;2024-01-27T05:35:41;28.40;;;16.30;;
65853;SDS011;52627;48.838;2.402;2024-01-27T05:38:08;31.80;;;17.90;;
65853;SDS011;52627;48.838;2.402;2024-01-27T05:40:36;29.00;;;17.00;;
65853;SDS011;52627;48.838;2.402;2024-01-27T05:43:07;28.90;;;16.10;;
65853;SDS011;52627;48.838;2.402;2024-01-27T05:45:35;25.70;;;16.30;;
65853;SDS011;52627;48.838;2.402;2024-01-27T05:48:03;28.10;;;16.50;;
65853;SDS011;52627;48.838;2.402;2024-01-27T05:50:31;26.00;;;16.00;;
65853;SDS011;52627;48.838;2.402;2024-01-27T05:52:59;27.00;;;16.10;;
65853;SDS011;52627;48.838;2.402;2024-01-27T05:55:26;28.20;;;15.90;;
65853;SDS011;52627;48.838;2.402;2024-01-27T05:57:54;26.30;;;16.30;;
65853;SDS011;52627;48.838;2.402;2024-01-27T06:00:24;30.30;;;17.00;;
65853;SDS011;52627;48.838;2.402;2024-01-27T06:02:51;28.90;;;15.50;;
65853;SDS011;52627;48.838;2.402;2024-01-27T06:05:19;29.90;;;16.50;;
65853;SDS011;52627;48.838;2.402;2024-01-27T06:07:46;25.50;;;16.70;;
65853;SDS011;52627;48.838;2.402;2024-01-27T06:10:15;29.30;;;16.80;;
65853;SDS011;52627;48.838;2.402;2024-01-27T06:12:42;29.80;;;16.30;;
65853;SDS011;52627;48.838;2.402;2024-01-27T06:15:10;27.70;;;14.20;;
65853;SDS011;52627;48.838;2.402;2024-01-27T06:17:38;30.30;;;16.20;;
65853;SDS011;52627;48.838;2.402;2024-01-27T06:20:06;27.20;;;15.70;;
65853;SDS011;52627;48.838;2.402;2024-01-27T06:22:34;26.20;;;15.00;;
65853;SDS011;52627;48.838;2.402;2024-01-27T06:25:02;25.70;;;15.60;;
65853;SDS011;52627;48.838;2.402;2024-01-27T06:27:29;26.50;;;16.50;;
65853;SDS011;52627;48.838;2.402;2024-01-27T06:29:57;30.80;;;17.00;;
65853;SDS011;52627;48.838;2.402;2024-01-27T06:32:25;26.20;;;16.50;;
65853;SDS011;52627;48.838;2.402;2024-01-27T06:34:52;25.80;;;15.50;;
65853;SDS011;52627;48.838;2.402;2024-01-27T06:37:20;28.40;;;16.30;;
65853;SDS011;52627;48.838;2.402;2024-01-27T06:39:49;23.30;;;15.50;;
65853;SDS011;52627;48.838;2.402;2024-01-27T06:42:17;26.40;;;15.50;;
65853;SDS011;52627;48.838;2.402;2024-01-27T06:44:44;27.40;;;14.20;;
65853;SDS011;52627;48.838;2.402;2024-01-27T06:47:12;28.00;;;14.10;;
65853;SDS011;52627;48.838;2.402;2024-01-27T06:49:39;23.30;;;13.40;;
65853;SDS011;52627;48.838;2.402;2024-01-27T06:52:07;23.10;;;14.20;;
65853;SDS011;52627;48.838;2.402;2024-01-27T06:54:35;25.20;;;14.10;;
65853;SDS011;52627;48.838;2.402;2024-01-27T06:57:03;23.90;;;13.80;;
65853;SDS011;52627;48.838;2.402;2024-01-27T06:59:32;24.00;;;13.50;;
65853;SDS011;52627;48.838;2.402;2024-01-27T07:01:59;23.80;;;13.90;;
65853;SDS011;52627;48.838;2.402;2024-01-27T07:04:27;23.40;;;13.50;;
65853;SDS011;52627;48.838;2.402;2024-01-27T07:06:55;24.80;;;12.90;;
65853;SDS011;52627;48.838;2.402;2024-01-27T07:09:22;23.10;;;12.80;;
65853;SDS011;52627;48.838;2.402;2024-01-27T07:11:50;22.60;;;14.40;;
65853;SDS011;52627;48.838;2.402;2024-01-27T07:14:19;22.10;;;12.60;;
65853;SDS011;52627;48.838;2.402;2024-01-27T07:16:47;27.80;;;13.30;;
65853;SDS011;52627;48.838;2.402;2024-01-27T07:19:15;26.20;;;12.10;;
65853;SDS011;52627;48.838;2.402;2024-01-27T07:21:43;24.20;;;13.50;;
65853;SDS011;52627;48.838;2.402;2024-01-27T07:24:11;25.10;;;13.50;;
65853;SDS011;52627;48.838;2.402;2024-01-27T07:26:38;24.10;;;14.20;;
65853;SDS011;52627;48.838;2.402;2024-01-27T07:29:06;22.60;;;13.40;;
65853;SDS011;52627;48.838;2.402;2024-01-27T07:31:33;25.40;;;13.30;;
65853;SDS011;52627;48.838;2.402;2024-01-27T07:34:01;23.30;;;11.60;;
65853;SDS011;52627;48.838;2.402;2024-01-27T07:36:28;24.10;;;12.50;;
65853;SDS011;52627;48.838;2.402;2024-01-27T07:39:00;22.30;;;11.50;;
65853;SDS011;52627;48.838;2.402;2024-01-27T07:41:27;21.10;;;11.60;;
65853;SDS011;52627;48.838;2.402;2024-01-27T07:46:38;20.10;;;9.80;;
65853;SDS011;52627;48.838;2.402;2024-01-27T07:49:07;16.40;;;8.80;;
65853;SDS011;52627;48.838;2.402;2024-01-27T07:51:35;16.80;;;9.50;;
65853;SDS011;52627;48.838;2.402;2024-01-27T07:54:03;23.40;;;11.20;;
65853;SDS011;52627;48.838;2.402;2024-01-27T07:56:30;20.30;;;11.40;;
65853;SDS011;52627;48.838;2.402;2024-01-27T07:58:58;18.10;;;10.80;;
65853;SDS011;52627;48.838;2.402;2024-01-27T08:01:25;20.90;;;10.90;;
65853;SDS011;52627;48.838;2.402;2024-01-27T08:03:53;18.30;;;10.80;;
65853;SDS011;52627;48.838;2.402;2024-01-27T08:06:28;17.70;;;11.00;;
65853;SDS011;52627;48.838;2.402;2024-01-27T08:08:59;21.20;;;10.50;;
65853;SDS011;52627;48.838;2.402;2024-01-27T08:11:27;19.20;;;10.20;;
65853;SDS011;52627;48.838;2.402;2024-01-27T08:13:57;19.70;;;10.70;;
65853;SDS011;52627;48.838;2.402;2024-01-27T08:16:25;20.10;;;9.90;;
65853;SDS011;52627;48.838;2.402;2024-01-27T08:18:52;18.50;;;8.80;;
65853;SDS011;52627;48.838;2.402;2024-01-27T08:21:20;15.20;;;8.60;;
65853;SDS011;52627;48.838;2.402;2024-01-27T08:23:48;14.90;;;7.80;;
65853;SDS011;52627;48.838;2.402;2024-01-27T08:26:16;16.60;;;7.90;;
65853;SDS011;52627;48.838;2.402;2024-01-27T08:28:48;16.80;;;8.10;;
65853;SDS011;52627;48.838;2.402;2024-01-27T08:31:16;15.60;;;7.60;;
65853;SDS011;52627;48.838;2.402;2024-01-27T08:33:43;17.00;;;7.10;;
65853;SDS011;52627;48.838;2.402;2024-01-27T08:36:14;20.70;;;8.00;;
65853;SDS011;52627;48.838;2.402;2024-01-27T08:38:42;15.90;;;8.00;;
65853;SDS011;52627;48.838;2.402;2024-01-27T08:41:10;15.60;;;7.50;;
65853;SDS011;52627;48.838;2.402;2024-01-27T08:43:38;14.80;;;7.50;;
65853;SDS011;52627;48.838;2.402;2024-01-27T08:46:05;14.90;;;7.40;;
65853;SDS011;52627;48.838;2.402;2024-01-27T08:48:34;16.20;;;7.10;;
65853;SDS011;52627;48.838;2.402;2024-01-27T08:51:02;15.80;;;7.00;;
65853;SDS011;52627;48.838;2.402;2024-01-27T08:53:30;11.80;;;6.20;;
65853;SDS011;52627;48.838;2.402;2024-01-27T08:55:58;14.60;;;6.60;;
65853;SDS011;52627;48.838;2.402;2024-01-27T08:58:25;13.90;;;7.80;;
65853;SDS011;52627;48.838;2.402;2024-01-27T09:00:53;17.40;;;7.90;;
65853;SDS011;52627;48.838;2.402;2024-01-27T09:03:21;14.80;;;7.30;;
65853;SDS011;52627;48.838;2.402;2024-01-27T09:05:48;16.10;;;7.90;;
65853;SDS011;52627;48.838;2.402;2024-01-27T09:08:17;13.10;;;7.20;;
65853;SDS011;52627;48.838;2.402;2024-01-27T09:10:44;18.40;;;8.20;;
65853;SDS011;52627;48.838;2.402;2024-01-27T09:13:12;14.30;;;7.70;;
65853;SDS011;52627;48.838;2.402;2024-01-27T09:15:39;17.80;;;8.60;;
65853;SDS011;52627;48.838;2.402;2024-01-27T09:18:07;14.70;;;7.90;;
65853;SDS011;52627;48.838;2.402;2024-01-27T09:20:35;13.60;;;6.90;;
65853;SDS011;52627;48.838;2.402;2024-01-27T09:23:02;14.70;;;7.20;;
65853;SDS011;52627;48.838;2.402;2024-01-27T09:25:30;17.20;;;7.60;;
65853;SDS011;52627;48.838;2.402;2024-01-27T09:27:58;14.40;;;7.80;;
65853;SDS011;52627;48.838;2.402;2024-01-27T09:30:28;15.50;;;8.10;;
65853;SDS011;52627;48.838;2.402;2024-01-27T09:32:58;13.10;;;7.60;;
65853;SDS011;52627;48.838;2.402;2024-01-27T09:35:26;15.90;;;6.70;;
65853;SDS011;52627;48.838;2.402;2024-01-27T09:37:54;12.60;;;6.20;;
65853;SDS011;52627;48.838;2.402;2024-01-27T09:40:21;14.90;;;6.10;;
65853;SDS011;52627;48.838;2.402;2024-01-27T09:42:52;14.40;;;6.90;;
65853;SDS011;52627;48.838;2.402;2024-01-27T09:45:20;18.60;;;7.50;;
65853;SDS011;52627;48.838;2.402;2024-01-27T09:47:51;17.30;;;6.80;;
65853;SDS011;52627;48.838;2.402;2024-01-27T09:50:20;12.00;;;6.20;;
65853;SDS011;52627;48.838;2.402;2024-01-27T09:52:49;18.90;;;6.20;;
65853;SDS011;52627;48.838;2.402;2024-01-27T09:55:16;14.70;;;5.70;;
65853;SDS011;52627;48.838;2.402;2024-01-27T09:57:44;19.00;;;6.20;;
65853;SDS011;52627;48.838;2.402;2024-01-27T10:00:13;12.90;;;5.40;;
65853;SDS011;52627;48.838;2.402;2024-01-27T10:02:46;13.70;;;5.40;;
65853;SDS011;52627;48.838;2.402;2024-01-27T10:05:14;14.90;;;5.20;;
65853;SDS011;52627;48.838;2.402;2024-01-27T10:07:42;15.90;;;5.30;;
65853;SDS011;52627;48.838;2.402;2024-01-27T10:10:10;11.00;;;4.80;;
65853;SDS011;52627;48.838;2.402;2024-01-27T10:12:41;9.70;;;5.00;;
65853;SDS011;52627;48.838;2.402;2024-01-27T10:15:20;14.20;;;4.80;;
65853;SDS011;52627;48.838;2.402;2024-01-27T10:17:49;12.40;;;4.30;;
65853;SDS011;52627;48.838;2.402;2024-01-27T10:20:16;12.20;;;5.10;;
65853;SDS011;52627;48.838;2.402;2024-01-27T10:22:46;11.10;;;5.00;;
65853;SDS011;52627;48.838;2.402;2024-01-27T10:25:14;13.20;;;5.20;;
65853;SDS011;52627;48.838;2.402;2024-01-27T10:27:42;12.30;;;4.30;;
65853;SDS011;52627;48.838;2.402;2024-01-27T10:30:17;13.30;;;4.50;;
65853;SDS011;52627;48.838;2.402;2024-01-27T10:32:56;11.10;;;4.60;;
65853;SDS011;52627;48.838;2.402;2024-01-27T10:35:25;10.70;;;5.20;;
65853;SDS011;52627;48.838;2.402;2024-01-27T10:37:56;10.10;;;3.80;;
65853;SDS011;52627;48.838;2.402;2024-01-27T10:40:26;9.60;;;4.20;;
65853;SDS011;52627;48.838;2.402;2024-01-27T10:43:01;12.20;;;4.60;;
65853;SDS011;52627;48.838;2.402;2024-01-27T10:45:40;11.40;;;3.90;;
65853;SDS011;52627;48.838;2.402;2024-01-27T10:48:09;8.40;;;5.00;;
65853;SDS011;52627;48.838;2.402;2024-01-27T10:50:41;9.30;;;4.20;;
65853;SDS011;52627;48.838;2.402;2024-01-27T10:53:22;14.10;;;4.60;;
65853;SDS011;52627;48.838;2.402;2024-01-27T10:55:59;10.60;;;4.30;;
65853;SDS011;52627;48.838;2.402;2024-01-27T10:58:27;11.30;;;4.20;;
65853;SDS011;52627;48.838;2.402;2024-01-27T11:00:57;14.50;;;5.10;;
65853;SDS011;52627;48.838;2.402;2024-01-27T11:03:27;10.00;;;4.30;;
65853;SDS011;52627;48.838;2.402;2024-01-27T11:05:57;10.80;;;4.50;;
65853;SDS011;52627;48.838;2.402;2024-01-27T11:08:25;10.50;;;4.10;;
65853;SDS011;52627;48.838;2.402;2024-01-27T11:10:56;11.00;;;4.50;;
65853;SDS011;52627;48.838;2.402;2024-01-27T11:13:24;8.20;;;3.70;;
65853;SDS011;52627;48.838;2.402;2024-01-27T11:15:54;13.30;;;3.90;;
65853;SDS011;52627;48.838;2.402;2024-01-27T11:18:22;10.90;;;3.60;;
65853;SDS011;52627;48.838;2.402;2024-01-27T11:20:54;8.50;;;3.60;;
65853;SDS011;52627;48.838;2.402;2024-01-27T11:23:35;8.90;;;3.80;;
65853;SDS011;52627;48.838;2.402;2024-01-27T11:26:07;8.10;;;2.90;;
65853;SDS011;52627;48.838;2.402;2024-01-27T11:28:36;10.40;;;3.10;;
65853;SDS011;52627;48.838;2.402;2024-01-27T11:31:05;10.70;;;3.90;;
65853;SDS011;52627;48.838;2.402;2024-01-27T11:33:41;8.20;;;3.40;;
65853;SDS011;52627;48.838;2.402;2024-01-27T11:36:22;14.00;;;4.30;;
65853;SDS011;52627;48.838;2.402;2024-01-27T11:38:51;10.70;;;4.10;;
65853;SDS011;52627;48.838;2.402;2024-01-27T11:41:29;9.10;;;4.20;;
65853;SDS011;52627;48.838;2.402;2024-01-27T11:43:58;8.90;;;3.70;;
65853;SDS011;52627;48.838;2.402;2024-01-27T11:46:29;13.50;;;4.20;;
65853;SDS011;52627;48.838;2.402;2024-01-27T11:48:57;12.00;;;3.60;;
65853;SDS011;52627;48.838;2.402;2024-01-27T11:51:25;10.10;;;3.50;;
65853;SDS011;52627;48.838;2.402;2024-01-27T11:53:53;8.30;;;3.40;;
65853;SDS011;52627;48.838;2.402;2024-01-27T11:56:21;8.10;;;3.70;;
65853;SDS011;52627;48.838;2.402;2024-01-27T11:58:49;9.50;;;4.00;;
65853;SDS011;52627;48.838;2.402;2024-01-27T12:01:17;7.70;;;3.90;;
65853;SDS011;52627;48.838;2.402;2024-01-27T12:03:45;9.90;;;3.30;;
65853;SDS011;52627;48.838;2.402;2024-01-27T12:06:14;10.10;;;3.80;;
65853;SDS011;52627;48.838;2.402;2024-01-27T12:08:42;11.00;;;3.90;;
65853;SDS011;52627;48.838;2.402;2024-01-27T12:11:15;7.20;;;3.10;;
65853;SDS011;52627;48.838;2.402;2024-01-27T12:13:50;10.10;;;4.60;;
65853;SDS011;52627;48.838;2.402;2024-01-27T12:16:18;8.00;;;4.20;;
65853;SDS011;52627;48.838;2.402;2024-01-27T12:18:45;9.40;;;5.00;;
65853;SDS011;52627;48.838;2.402;2024-01-27T12:21:18;10.00;;;3.30;;
65853;SDS011;52627;48.838;2.402;2024-01-27T12:26:25;10.10;;;2.40;;
65853;SDS011;52627;48.838;2.402;2024-01-27T12:31:23;7.00;;;2.30;;
65853;SDS011;52627;48.838;2.402;2024-01-27T12:33:53;7.40;;;2.30;;
65853;SDS011;52627;48.838;2.402;2024-01-27T12:36:23;6.50;;;2.30;;
65853;SDS011;52627;48.838;2.402;2024-01-27T12:41:24;8.10;;;2.30;;
65853;SDS011;52627;48.838;2.402;2024-01-27T12:43:54;7.10;;;2.20;;
65853;SDS011;52627;48.838;2.402;2024-01-27T12:46:22;10.60;;;2.30;;
65853;SDS011;52627;48.838;2.402;2024-01-27T12:48:49;7.70;;;2.20;;
65853;SDS011;52627;48.838;2.402;2024-01-27T12:51:17;8.30;;;2.60;;
65853;SDS011;52627;48.838;2.402;2024-01-27T12:53:45;7.70;;;2.40;;
65853;SDS011;52627;48.838;2.402;2024-01-27T12:56:14;9.40;;;2.30;;
65853;SDS011;52627;48.838;2.402;2024-01-27T12:58:42;7.30;;;2.30;;
65853;SDS011;52627;48.838;2.402;2024-01-27T13:01:10;9.10;;;2.30;;
65853;SDS011;52627;48.838;2.402;2024-01-27T13:03:38;8.20;;;2.50;;
65853;SDS011;52627;48.838;2.402;2024-01-27T13:06:11;7.90;;;2.40;;
65853;SDS011;52627;48.838;2.402;2024-01-27T13:08:40;8.60;;;2.70;;
65853;SDS011;52627;48.838;2.402;2024-01-27T13:11:09;9.50;;;2.50;;
65853;SDS011;52627;48.838;2.402;2024-01-27T13:13:37;6.80;;;2.60;;
65853;SDS011;52627;48.838;2.402;2024-01-27T13:16:05;5.60;;;2.30;;
65853;SDS011;52627;48.838;2.402;2024-01-27T13:18:33;8.70;;;3.00;;
65853;SDS011;52627;48.838;2.402;2024-01-27T13:21:00;9.20;;;3.20;;
65853;SDS011;52627;48.838;2.402;2024-01-27T13:23:28;8.60;;;2.80;;
65853;SDS011;52627;48.838;2.402;2024-01-27T13:25:56;8.20;;;2.30;;
65853;SDS011;52627;48.838;2.402;2024-01-27T13:28:43;8.70;;;2.70;;
65853;SDS011;52627;48.838;2.402;2024-01-27T13:31:11;6.30;;;2.50;;
65853;SDS011;52627;48.838;2.402;2024-01-27T13:33:39;5.90;;;1.90;;
65853;SDS011;52627;48.838;2.402;2024-01-27T13:36:07;5.20;;;2.10;;
65853;SDS011;52627;48.838;2.402;2024-01-27T13:38:35;6.80;;;1.80;;
65853;SDS011;52627;48.838;2.402;2024-01-27T13:41:03;6.20;;;2.20;;
65853;SDS011;52627;48.838;2.402;2024-01-27T13:43:30;6.40;;;2.20;;
65853;SDS011;52627;48.838;2.402;2024-01-27T13:45:58;4.60;;;2.00;;
65853;SDS011;52627;48.838;2.402;2024-01-27T13:48:26;9.60;;;2.20;;
65853;SDS011;52627;48.838;2.402;2024-01-27T13:50:54;7.10;;;2.10;;
65853;SDS011;52627;48.838;2.402;2024-01-27T13:53:22;7.70;;;3.20;;
65853;SDS011;52627;48.838;2.402;2024-01-27T13:56:09;9.90;;;3.10;;
65853;SDS011;52627;48.838;2.402;2024-01-27T13:58:37;7.80;;;3.50;;
65853;SDS011;52627;48.838;2.402;2024-01-27T14:01:04;12.10;;;3.60;;
65853;SDS011;52627;48.838;2.402;2024-01-27T14:03:33;6.10;;;1.90;;
65853;SDS011;52627;48.838;2.402;2024-01-27T14:06:01;4.00;;;1.90;;
65853;SDS011;52627;48.838;2.402;2024-01-27T14:08:28;5.70;;;1.60;;
65853;SDS011;52627;48.838;2.402;2024-01-27T14:10:56;7.60;;;2.00;;
65853;SDS011;52627;48.838;2.402;2024-01-27T14:13:23;6.30;;;1.70;;
65853;SDS011;52627;48.838;2.402;2024-01-27T14:15:51;5.80;;;2.20;;
65853;SDS011;52627;48.838;2.402;2024-01-27T14:18:18;6.40;;;1.80;;
65853;SDS011;52627;48.838;2.402;2024-01-27T14:20:50;3.60;;;1.40;;
65853;SDS011;52627;48.838;2.402;2024-01-27T14:23:20;4.50;;;1.50;;
65853;SDS011;52627;48.838;2.402;2024-01-27T14:25:48;4.40;;;1.60;;
65853;SDS011;52627;48.838;2.402;2024-01-27T14:28:15;3.90;;;1.30;;
65853;SDS011;52627;48.838;2.402;2024-01-27T14:30:46;4.90;;;1.60;;
65853;SDS011;52627;48.838;2.402;2024-01-27T14:33:14;6.80;;;1.70;;
65853;SDS011;52627;48.838;2.402;2024-01-27T14:35:48;5.90;;;1.90;;
65853;SDS011;52627;48.838;2.402;2024-01-27T14:38:15;5.10;;;1.90;;
65853;SDS011;52627;48.838;2.402;2024-01-27T14:40:43;5.60;;;2.60;;
65853;SDS011;52627;48.838;2.402;2024-01-27T14:43:10;10.80;;;2.20;;
65853;SDS011;52627;48.838;2.402;2024-01-27T14:45:39;6.30;;;2.10;;
65853;SDS011;52627;48.838;2.402;2024-01-27T14:48:07;7.20;;;2.30;;